createdAt,value
2023-04-13T00:00:48.805Z,99222.00
2023-04-13T00:03:17.532Z,99217.00
2023-04-13T00:05:46.471Z,99230.00
2023-04-13T00:08:14.053Z,99236.00
2023-04-13T00:10:41.844Z,99231.00
2023-04-13T00:13:11.388Z,99217.00
2023-04-13T00:15:43.172Z,99203.00
2023-04-13T00:18:11.111Z,99186.00
2023-04-13T00:20:41.040Z,99187.00
2023-04-13T00:23:07.928Z,99183.00
2023-04-13T00:25:34.788Z,99192.00
2023-04-13T00:28:06.303Z,99182.00
2023-04-13T00:30:33.434Z,99150.00
2023-04-13T00:33:03.721Z,99180.00
2023-04-13T00:35:30.994Z,99171.00
2023-04-13T00:37:58.758Z,99196.00
2023-04-13T00:40:28.168Z,99192.00
2023-04-13T00:42:55.220Z,99209.00
2023-04-13T00:45:22.244Z,99215.00
2023-04-13T00:47:51.907Z,99221.00
2023-04-13T00:50:21.171Z,99224.00
2023-04-13T00:52:49.036Z,99208.00
2023-04-13T00:55:21.251Z,99214.00
2023-04-13T00:57:53.356Z,99165.00
2023-04-13T01:00:21.966Z,99189.00
2023-04-13T01:02:52.753Z,99169.00
2023-04-13T01:05:20.208Z,99212.00
2023-04-13T01:08:09.245Z,99199.00
2023-04-13T01:11:05.753Z,99193.00
2023-04-13T01:13:47.472Z,99188.00
2023-04-13T01:16:33.170Z,99193.00
2023-04-13T01:19:01.213Z,99194.00
2023-04-13T01:21:32.051Z,99196.00
2023-04-13T01:24:43.378Z,99190.00
2023-04-13T01:27:43.743Z,99189.00
2023-04-13T01:30:16.822Z,99194.00
2023-04-13T01:32:45.826Z,99195.00
2023-04-13T01:35:13.550Z,99182.00
2023-04-13T01:37:44.947Z,99179.00
2023-04-13T01:40:12.907Z,99178.00
2023-04-13T01:42:42.244Z,99181.00
2023-04-13T01:45:27.429Z,99185.00
2023-04-13T01:48:33.403Z,99181.00
2023-04-13T01:51:16.622Z,99182.00
2023-04-13T01:54:02.698Z,99181.00
2023-04-13T01:56:30.957Z,99180.00
2023-04-13T01:58:59.914Z,99148.00
2023-04-13T02:01:27.025Z,99176.00
2023-04-13T02:03:54.208Z,99178.00
2023-04-13T02:06:21.243Z,99172.00
2023-04-13T02:08:49.565Z,99171.00
2023-04-13T02:11:18.061Z,99177.00
2023-04-13T02:13:44.930Z,99174.00
2023-04-13T02:16:11.859Z,99182.00
2023-04-13T02:18:38.760Z,99184.00
2023-04-13T02:21:13.342Z,99201.00
2023-04-13T02:23:41.383Z,99192.00
2023-04-13T02:26:10.650Z,99202.00
2023-04-13T02:28:37.500Z,99202.00
2023-04-13T02:31:05.910Z,99211.00
2023-04-13T02:33:34.414Z,99203.00
2023-04-13T02:36:04.081Z,99208.00
2023-04-13T02:38:32.209Z,99207.00
2023-04-13T02:41:01.235Z,99212.00
2023-04-13T02:43:28.969Z,99208.00
2023-04-13T02:45:57.468Z,99170.00
2023-04-13T02:48:24.400Z,99217.00
2023-04-13T02:50:52.073Z,99217.00
2023-04-13T02:53:19.284Z,99214.00
2023-04-13T02:55:50.286Z,99209.00
2023-04-13T02:58:17.419Z,99211.00
2023-04-13T03:00:44.659Z,99224.00
2023-04-13T03:03:11.932Z,99224.00
2023-04-13T03:05:38.969Z,99217.00
2023-04-13T03:08:06.311Z,99214.00
2023-04-13T03:10:33.300Z,99217.00
2023-04-13T03:13:00.201Z,99211.00
2023-04-13T03:15:27.307Z,99218.00
2023-04-13T03:17:54.185Z,99222.00
2023-04-13T03:20:23.697Z,99224.00
2023-04-13T03:22:51.727Z,99223.00
2023-04-13T03:25:18.711Z,99233.00
2023-04-13T03:27:45.585Z,99241.00
2023-04-13T03:30:12.934Z,99237.00
2023-04-13T03:32:39.984Z,99228.00
2023-04-13T03:35:07.219Z,99222.00
2023-04-13T03:37:40.383Z,99221.00
2023-04-13T03:40:11.363Z,99225.00
2023-04-13T03:42:38.688Z,99213.00
2023-04-13T03:45:07.049Z,99210.00
2023-04-13T03:47:34.091Z,99219.00
2023-04-13T03:50:01.398Z,99215.00
2023-04-13T03:52:28.345Z,99222.00
2023-04-13T03:54:55.352Z,99217.00
2023-04-13T03:57:22.814Z,99218.00
2023-04-13T03:59:49.714Z,99232.00
2023-04-13T04:02:16.764Z,99232.00
2023-04-13T04:04:43.837Z,99237.00
2023-04-13T04:07:11.099Z,99239.00
2023-04-13T04:09:37.981Z,99251.00
2023-04-13T04:12:05.442Z,99253.00
2023-04-13T04:14:32.336Z,99246.00
2023-04-13T04:16:59.254Z,99243.00
2023-04-13T04:19:26.116Z,99233.00
2023-04-13T04:21:53.045Z,99241.00
2023-04-13T04:24:23.644Z,99236.00
2023-04-13T04:26:50.784Z,99237.00
2023-04-13T04:29:21.927Z,99236.00
2023-04-13T04:31:53.444Z,99234.00
2023-04-13T04:34:20.998Z,99240.00
2023-04-13T04:36:51.853Z,99228.00
2023-04-13T04:39:22.472Z,99228.00
2023-04-13T04:41:54.224Z,99230.00
2023-04-13T04:44:25.483Z,99236.00
2023-04-13T04:46:52.864Z,99233.00
2023-04-13T04:49:23.230Z,99233.00
2023-04-13T04:51:50.108Z,99239.00
2023-04-13T04:54:18.276Z,99240.00
2023-04-13T04:56:45.727Z,99242.00
2023-04-13T04:59:12.940Z,99234.00
2023-04-13T05:01:40.838Z,99226.00
2023-04-13T05:04:08.149Z,99232.00
2023-04-13T05:06:35.380Z,99226.00
2023-04-13T05:09:07.041Z,99239.00
2023-04-13T05:11:34.125Z,99226.00
2023-04-13T05:14:01.543Z,99236.00
2023-04-13T05:16:30.633Z,99221.00
2023-04-13T05:18:58.116Z,99219.00
2023-04-13T05:21:26.810Z,99230.00
2023-04-13T05:23:53.769Z,99233.00
2023-04-13T05:26:20.739Z,99235.00
2023-04-13T05:28:47.721Z,99241.00
2023-04-13T05:31:16.113Z,99241.00
2023-04-13T05:33:43.219Z,99242.00
2023-04-13T05:36:10.264Z,99235.00
2023-04-13T05:38:37.144Z,99233.00
2023-04-13T05:41:04.254Z,99233.00
2023-04-13T05:43:31.387Z,99236.00
2023-04-13T05:45:58.336Z,99240.00
2023-04-13T05:48:26.577Z,99240.00
2023-04-13T05:50:59.590Z,99241.00
2023-04-13T05:53:27.101Z,99251.00
2023-04-13T05:55:55.541Z,99247.00
2023-04-13T05:58:22.501Z,99248.00
2023-04-13T06:00:49.458Z,99251.00
2023-04-13T06:03:17.226Z,99262.00
2023-04-13T06:05:44.767Z,99259.00
2023-04-13T06:08:11.899Z,99259.00
2023-04-13T06:10:39.163Z,99261.00
2023-04-13T06:13:06.140Z,99271.00
2023-04-13T06:15:34.266Z,99271.00
2023-04-13T06:18:01.220Z,99264.00
2023-04-13T06:20:28.445Z,99260.00
2023-04-13T06:22:55.312Z,99256.00
2023-04-13T06:25:22.496Z,99258.00
2023-04-13T06:27:49.980Z,99249.00
2023-04-13T06:30:17.395Z,99273.00
2023-04-13T06:32:44.391Z,99274.00
2023-04-13T06:35:11.324Z,99258.00
2023-04-13T06:37:39.500Z,99253.00
2023-04-13T06:40:12.181Z,99256.00
2023-04-13T06:42:41.400Z,99259.00
2023-04-13T06:45:12.642Z,99266.00
2023-04-13T06:47:43.270Z,99255.00
2023-04-13T06:50:18.526Z,99247.00
2023-04-13T06:52:48.004Z,99272.00
2023-04-13T06:55:15.858Z,99268.00
2023-04-13T06:57:43.638Z,99262.00
2023-04-13T07:00:28.250Z,99273.00
2023-04-13T07:02:58.798Z,99265.00
2023-04-13T07:05:26.013Z,99262.00
2023-04-13T07:07:52.946Z,99263.00
2023-04-13T07:10:19.984Z,99258.00
2023-04-13T07:12:46.899Z,99263.00
2023-04-13T07:15:13.865Z,99266.00
2023-04-13T07:17:40.939Z,99268.00
2023-04-13T07:20:09.379Z,99277.00
2023-04-13T07:22:36.705Z,99278.00
2023-04-13T07:25:04.114Z,99282.00
2023-04-13T07:27:31.152Z,99289.00
2023-04-13T07:29:58.126Z,99282.00
2023-04-13T07:32:30.861Z,99291.00
2023-04-13T07:35:01.408Z,99284.00
2023-04-13T07:37:28.542Z,99287.00
2023-04-13T07:39:55.447Z,99280.00
2023-04-13T07:42:22.308Z,99281.00
2023-04-13T07:44:49.230Z,99282.00
2023-04-13T07:47:16.790Z,99279.00
2023-04-13T07:49:43.672Z,99288.00
2023-04-13T07:52:10.519Z,99282.00
2023-04-13T07:54:41.016Z,99277.00
2023-04-13T07:57:07.904Z,99281.00
2023-04-13T07:59:34.839Z,99275.00
2023-04-13T08:02:01.748Z,99284.00
2023-04-13T08:04:28.818Z,99289.00
2023-04-13T08:06:55.875Z,99282.00
2023-04-13T08:09:22.726Z,99295.00
2023-04-13T08:11:50.066Z,99281.00
2023-04-13T08:14:17.413Z,99286.00
2023-04-13T08:16:44.327Z,99292.00
2023-04-13T08:19:11.246Z,99294.00
2023-04-13T08:21:41.765Z,99285.00
2023-04-13T08:24:09.731Z,99285.00
2023-04-13T08:26:36.803Z,99288.00
2023-04-13T08:29:03.851Z,99279.00
2023-04-13T08:31:32.423Z,99259.00
2023-04-13T08:33:59.347Z,99284.00
2023-04-13T08:36:27.558Z,99279.00
2023-04-13T08:38:54.482Z,99286.00
2023-04-13T08:41:22.833Z,99285.00
2023-04-13T08:43:51.073Z,99283.00
2023-04-13T08:46:22.346Z,99282.00
2023-04-13T08:48:54.599Z,99277.00
2023-04-13T08:51:26.601Z,99284.00
2023-04-13T08:53:53.801Z,99291.00
2023-04-13T08:56:28.296Z,99290.00
2023-04-13T08:59:09.159Z,99294.00
2023-04-13T09:01:40.582Z,99296.00
2023-04-13T09:04:13.995Z,99289.00
2023-04-13T09:06:45.927Z,99279.00
2023-04-13T09:09:14.813Z,99298.00
2023-04-13T09:11:43.471Z,99296.00
2023-04-13T09:14:10.675Z,99308.00
2023-04-13T09:16:42.796Z,99308.00
2023-04-13T09:19:11.173Z,99306.00
2023-04-13T09:21:43.558Z,99306.00
2023-04-13T09:24:12.501Z,99307.00
2023-04-13T09:26:47.928Z,99298.00
2023-04-13T09:29:22.332Z,99305.00
2023-04-13T09:31:49.371Z,99300.00
2023-04-13T09:34:29.063Z,99315.00
2023-04-13T09:36:58.087Z,99312.00
2023-04-13T09:39:28.961Z,99308.00
2023-04-13T09:41:56.637Z,99327.00
2023-04-13T09:44:24.892Z,99321.00
2023-04-13T09:47:06.967Z,99311.00
2023-04-13T09:49:41.223Z,99312.00
2023-04-13T09:52:19.488Z,99316.00
2023-04-13T09:54:59.847Z,99312.00
2023-04-13T09:57:31.854Z,99315.00
2023-04-13T10:00:07.370Z,99318.00
2023-04-13T10:02:35.908Z,99310.00
2023-04-13T10:05:03.986Z,99309.00
2023-04-13T10:07:36.952Z,99307.00
2023-04-13T10:10:04.903Z,99311.00
2023-04-13T10:12:36.671Z,99316.00
2023-04-13T10:15:24.123Z,99310.00
2023-04-13T10:18:40.019Z,99308.00
2023-04-13T10:21:10.684Z,99314.00
2023-04-13T10:23:39.054Z,99317.00
2023-04-13T10:26:07.109Z,99293.00
2023-04-13T10:28:48.320Z,99311.00
2023-04-13T10:31:15.426Z,99309.00
2023-04-13T10:33:51.870Z,99316.00
2023-04-13T10:36:18.810Z,99318.00
2023-04-13T10:38:46.972Z,99311.00
2023-04-13T10:41:27.058Z,99309.00
2023-04-13T10:44:09.228Z,99318.00
2023-04-13T10:46:36.504Z,99313.00
2023-04-13T10:49:04.806Z,99311.00
2023-04-13T10:51:45.446Z,99315.00
2023-04-13T10:54:14.315Z,99317.00
2023-04-13T10:56:41.286Z,99325.00
2023-04-13T10:59:08.247Z,99322.00
2023-04-13T11:01:35.852Z,99336.00
2023-04-13T11:04:06.763Z,99340.00
2023-04-13T11:06:37.965Z,99331.00
2023-04-13T11:09:07.077Z,99328.00
2023-04-13T11:11:37.257Z,99327.00
2023-04-13T11:14:04.525Z,99330.00
2023-04-13T11:16:31.672Z,99344.00
2023-04-13T11:19:03.867Z,99341.00
2023-04-13T11:21:35.443Z,99327.00
2023-04-13T11:24:02.771Z,99342.00
2023-04-13T11:26:34.347Z,99340.00
2023-04-13T11:29:03.963Z,99341.00
2023-04-13T11:31:42.041Z,99352.00
2023-04-13T11:34:13.180Z,99325.00
2023-04-13T11:36:41.059Z,99339.00
2023-04-13T11:39:10.649Z,99326.00
2023-04-13T11:41:44.524Z,99351.00
2023-04-13T11:44:12.467Z,99346.00
2023-04-13T11:46:39.600Z,99352.00
2023-04-13T11:49:07.315Z,99347.00
2023-04-13T11:51:35.070Z,99349.00
2023-04-13T11:54:02.687Z,99353.00
2023-04-13T11:56:31.048Z,99351.00
2023-04-13T12:01:29.987Z,99357.00
2023-04-13T12:04:19.064Z,99352.00
2023-04-13T12:06:47.665Z,99360.00
2023-04-13T12:09:17.776Z,99353.00
2023-04-13T12:11:53.959Z,99356.00
2023-04-13T12:14:54.161Z,99354.00
2023-04-13T12:17:38.095Z,99354.00
2023-04-13T12:20:07.660Z,99357.00
2023-04-13T12:22:54.860Z,99346.00
2023-04-13T12:25:35.711Z,99351.00
2023-04-13T12:28:04.122Z,99333.00
2023-04-13T12:30:32.856Z,99348.00
2023-04-13T12:32:59.821Z,99340.00
2023-04-13T12:35:26.690Z,99344.00
2023-04-13T12:37:53.605Z,99348.00
2023-04-13T12:40:20.590Z,99342.00
2023-04-13T12:42:48.984Z,99332.00
2023-04-13T12:45:16.856Z,99337.00
2023-04-13T12:47:43.880Z,99338.00
2023-04-13T12:50:12.395Z,99341.00
2023-04-13T12:52:42.885Z,99342.00
2023-04-13T12:55:10.049Z,99350.00
2023-04-13T12:57:37.153Z,99346.00
2023-04-13T13:00:09.816Z,99344.00
2023-04-13T13:02:37.484Z,99346.00
2023-04-13T13:05:05.082Z,99347.00
2023-04-13T13:07:32.233Z,99347.00
2023-04-13T13:10:01.077Z,99349.00
2023-04-13T13:12:30.225Z,99347.00
2023-04-13T13:15:01.310Z,99357.00
2023-04-13T13:17:28.645Z,99354.00
2023-04-13T13:19:57.055Z,99355.00
2023-04-13T13:22:24.030Z,99336.00
2023-04-13T13:24:51.174Z,99355.00
2023-04-13T13:29:47.882Z,99357.00
2023-04-13T13:32:15.489Z,99365.00
2023-04-13T13:34:43.667Z,99369.00
2023-04-13T13:37:10.698Z,99370.00
2023-04-13T13:39:38.485Z,99379.00
2023-04-13T13:42:05.642Z,99381.00
2023-04-13T13:44:33.854Z,99382.00
2023-04-13T13:47:02.057Z,99383.00
2023-04-13T13:49:29.001Z,99384.00
2023-04-13T13:51:55.984Z,99390.00
2023-04-13T13:54:22.963Z,99390.00
2023-04-13T13:56:49.872Z,99391.00
2023-04-13T13:59:16.782Z,99387.00
2023-04-13T14:01:44.067Z,99384.00
2023-04-13T14:04:12.856Z,99395.00
2023-04-13T14:06:39.881Z,99387.00
2023-04-13T14:09:06.883Z,99386.00
2023-04-13T14:11:34.539Z,99387.00
2023-04-13T14:14:10.853Z,99388.00
2023-04-13T14:16:41.715Z,99391.00
2023-04-13T14:19:08.678Z,99397.00
2023-04-13T14:21:35.801Z,99394.00
2023-04-13T14:24:02.854Z,99410.00
2023-04-13T14:26:29.825Z,99401.00
2023-04-13T14:28:56.895Z,99404.00
2023-04-13T14:31:23.892Z,99400.00
2023-04-13T14:33:51.053Z,99403.00
2023-04-13T14:36:19.290Z,99404.00
2023-04-13T14:38:46.177Z,99408.00
2023-04-13T14:41:13.869Z,99392.00
2023-04-13T14:43:40.803Z,99397.00
2023-04-13T14:46:09.028Z,99397.00
2023-04-13T14:48:36.173Z,99394.00
2023-04-13T14:51:03.261Z,99386.00
2023-04-13T14:53:31.153Z,99396.00
2023-04-13T14:55:58.510Z,99399.00
2023-04-13T14:58:26.134Z,99395.00
2023-04-13T15:00:53.386Z,99403.00
2023-04-13T15:03:20.484Z,99394.00
2023-04-13T15:05:48.345Z,99397.00
2023-04-13T15:08:19.686Z,99390.00
2023-04-13T15:10:46.575Z,99396.00
2023-04-13T15:13:13.467Z,99403.00
2023-04-13T15:15:40.806Z,99391.00
2023-04-13T15:18:08.524Z,99402.00
2023-04-13T15:20:35.514Z,99396.00
2023-04-13T15:23:02.533Z,99393.00
2023-04-13T15:25:29.539Z,99394.00
2023-04-13T15:27:58.693Z,99393.00
2023-04-13T15:30:32.084Z,99397.00
2023-04-13T15:33:04.927Z,99405.00
2023-04-13T15:35:35.642Z,99403.00
2023-04-13T15:38:03.210Z,99402.00
2023-04-13T15:40:33.605Z,99408.00
2023-04-13T15:43:01.105Z,99404.00
2023-04-13T15:45:28.113Z,99412.00
2023-04-13T15:47:55.319Z,99408.00
2023-04-13T15:50:22.406Z,99412.00
2023-04-13T15:52:49.297Z,99415.00
2023-04-13T15:55:16.297Z,99419.00
2023-04-13T15:57:43.485Z,99420.00
2023-04-13T16:00:11.136Z,99429.00
2023-04-13T16:02:38.743Z,99421.00
2023-04-13T16:05:06.009Z,99431.00
2023-04-13T16:07:33.005Z,99423.00
2023-04-13T16:10:01.710Z,99437.00
2023-04-13T16:12:32.283Z,99439.00
2023-04-13T16:15:00.174Z,99434.00
2023-04-13T16:17:32.056Z,99437.00
2023-04-13T16:20:13.957Z,99439.00
2023-04-13T16:22:43.624Z,99447.00
2023-04-13T16:25:11.497Z,99446.00
2023-04-13T16:27:39.899Z,99443.00
2023-04-13T16:30:08.436Z,99422.00
2023-04-13T16:32:35.588Z,99448.00
2023-04-13T16:35:02.690Z,99460.00
2023-04-13T16:37:29.647Z,99467.00
2023-04-13T16:39:56.582Z,99468.00
2023-04-13T16:42:23.595Z,99471.00
2023-04-13T16:44:50.457Z,99471.00
2023-04-13T16:47:18.367Z,99474.00
2023-04-13T16:49:45.513Z,99490.00
2023-04-13T16:52:13.044Z,99492.00
2023-04-13T16:54:44.044Z,99494.00
2023-04-13T16:57:11.938Z,99488.00
2023-04-13T16:59:39.124Z,99499.00
2023-04-13T17:02:13.197Z,99497.00
2023-04-13T17:04:45.290Z,99499.00
2023-04-13T17:07:12.235Z,99499.00
2023-04-13T17:09:39.277Z,99504.00
2023-04-13T17:12:06.492Z,99508.00
2023-04-13T17:14:33.854Z,99504.00
2023-04-13T17:17:00.762Z,99508.00
2023-04-13T17:19:27.871Z,99511.00
2023-04-13T17:21:54.790Z,99510.00
2023-04-13T17:24:22.196Z,99505.00
2023-04-13T17:26:49.110Z,99518.00
2023-04-13T17:29:17.641Z,99521.00
2023-04-13T17:31:44.700Z,99518.00
2023-04-13T17:34:11.665Z,99521.00
2023-04-13T17:36:38.719Z,99516.00
2023-04-13T17:39:07.014Z,99518.00
2023-04-13T17:41:35.015Z,99520.00
2023-04-13T17:44:02.292Z,99523.00
2023-04-13T17:46:31.968Z,99518.00
2023-04-13T17:48:59.504Z,99523.00
2023-04-13T17:51:26.852Z,99529.00
2023-04-13T17:53:53.896Z,99538.00
2023-04-13T17:56:20.973Z,99535.00
2023-04-13T17:58:49.224Z,99542.00
2023-04-13T18:01:16.310Z,99544.00
2023-04-13T18:03:43.525Z,99549.00
2023-04-13T18:06:10.957Z,99544.00
2023-04-13T18:08:37.828Z,99550.00
2023-04-13T18:11:04.819Z,99557.00
2023-04-13T18:13:31.791Z,99563.00
2023-04-13T18:15:58.748Z,99570.00
2023-04-13T18:18:26.882Z,99585.00
2023-04-13T18:20:53.854Z,99581.00
2023-04-13T18:23:21.771Z,99585.00
2023-04-13T18:25:51.096Z,99585.00
2023-04-13T18:28:18.512Z,99587.00
2023-04-13T18:30:46.233Z,99588.00
2023-04-13T18:33:13.213Z,99583.00
2023-04-13T18:35:44.453Z,99589.00
2023-04-13T18:38:11.617Z,99600.00
2023-04-13T18:40:39.849Z,99593.00
2023-04-13T18:43:07.853Z,99567.00
2023-04-13T18:45:34.834Z,99599.00
2023-04-13T18:48:02.129Z,99607.00
2023-04-13T18:50:29.412Z,99602.00
2023-04-13T18:52:56.695Z,99581.00
2023-04-13T18:55:25.692Z,99598.00
2023-04-13T18:57:52.752Z,99598.00
2023-04-13T19:00:20.519Z,99597.00
2023-04-13T19:02:57.220Z,99592.00
2023-04-13T19:05:24.563Z,99598.00
2023-04-13T19:07:59.956Z,99604.00
2023-04-13T19:10:31.562Z,99599.00
2023-04-13T19:12:58.615Z,99593.00
2023-04-13T19:15:25.703Z,99596.00
2023-04-13T19:17:53.053Z,99592.00
2023-04-13T19:20:25.007Z,99591.00
2023-04-13T19:22:54.632Z,99598.00
2023-04-13T19:25:21.658Z,99604.00
2023-04-13T19:27:50.030Z,99596.00
2023-04-13T19:30:18.998Z,99611.00
2023-04-13T19:32:49.208Z,99606.00
2023-04-13T19:35:19.882Z,99608.00
2023-04-13T19:37:46.828Z,99613.00
2023-04-13T19:40:15.260Z,99584.00
2023-04-13T19:42:44.687Z,99587.00
2023-04-13T19:45:14.098Z,99610.00
2023-04-13T19:47:42.392Z,99608.00
2023-04-13T19:50:12.755Z,99594.00
2023-04-13T19:52:41.558Z,99611.00
2023-04-13T19:55:10.507Z,99608.00
2023-04-13T19:57:42.059Z,99604.00
2023-04-13T20:00:20.419Z,99597.00
2023-04-13T20:02:50.479Z,99599.00
2023-04-13T20:05:19.461Z,99601.00
2023-04-13T20:07:46.463Z,99594.00
2023-04-13T20:10:13.394Z,99590.00
2023-04-13T20:12:40.319Z,99596.00
2023-04-13T20:15:08.017Z,99579.00
2023-04-13T20:17:35.004Z,99597.00
2023-04-13T20:20:02.484Z,99596.00
2023-04-13T20:22:29.417Z,99593.00
2023-04-13T20:24:56.362Z,99587.00
2023-04-13T20:27:24.028Z,99587.00
2023-04-13T20:29:51.955Z,99568.00
2023-04-13T20:32:18.947Z,99571.00
2023-04-13T20:34:45.874Z,99574.00
2023-04-13T20:37:14.465Z,99589.00
2023-04-13T20:39:50.111Z,99592.00
2023-04-13T20:42:19.491Z,99585.00
2023-04-13T20:44:46.973Z,99578.00
2023-04-13T20:47:14.113Z,99581.00
2023-04-13T20:49:49.582Z,99581.00
2023-04-13T20:52:18.117Z,99581.00
2023-04-13T20:54:46.033Z,99585.00
2023-04-13T20:57:13.308Z,99587.00
2023-04-13T20:59:40.788Z,99584.00
2023-04-13T21:02:09.171Z,99586.00
2023-04-13T21:04:40.715Z,99583.00
2023-04-13T21:07:11.048Z,99581.00
2023-04-13T21:09:38.264Z,99589.00
2023-04-13T21:12:05.360Z,99588.00
2023-04-13T21:14:32.350Z,99578.00
2023-04-13T21:16:59.755Z,99590.00
2023-04-13T21:19:28.088Z,99594.00
2023-04-13T21:21:57.340Z,99590.00
2023-04-13T21:24:24.537Z,99590.00
2023-04-13T21:26:51.483Z,99595.00
2023-04-13T21:29:20.141Z,99596.00
2023-04-13T21:31:47.921Z,99593.00
2023-04-13T21:34:16.686Z,99570.00
2023-04-13T21:39:15.973Z,99586.00
2023-04-13T21:41:42.830Z,99593.00
2023-04-13T21:44:22.624Z,99591.00
2023-04-13T21:46:55.924Z,99596.00
2023-04-13T21:49:22.946Z,99593.00
2023-04-13T21:51:49.873Z,99597.00
2023-04-13T21:54:16.777Z,99601.00
2023-04-13T21:56:43.892Z,99597.00
2023-04-13T21:59:11.063Z,99602.00
2023-04-13T22:01:38.024Z,99604.00
2023-04-13T22:04:05.076Z,99603.00
2023-04-13T22:06:32.693Z,99611.00
2023-04-13T22:08:59.755Z,99605.00
2023-04-13T22:11:26.851Z,99581.00
2023-04-13T22:13:53.758Z,99602.00
2023-04-13T22:16:20.921Z,99603.00
2023-04-13T22:18:47.937Z,99606.00
2023-04-13T22:21:14.868Z,99608.00
2023-04-13T22:23:41.772Z,99611.00
2023-04-13T22:26:08.703Z,99619.00
2023-04-13T22:28:35.593Z,99606.00
2023-04-13T22:31:09.540Z,99606.00
2023-04-13T22:33:36.889Z,99616.00
2023-04-13T22:36:17.454Z,99612.00
2023-04-13T22:38:44.519Z,99612.00
2023-04-13T22:41:11.557Z,99615.00
2023-04-13T22:43:38.633Z,99617.00
2023-04-13T22:46:05.834Z,99606.00
2023-04-13T22:48:32.748Z,99609.00
2023-04-13T22:51:03.698Z,99606.00
2023-04-13T22:53:31.211Z,99611.00
2023-04-13T22:55:59.321Z,99606.00
2023-04-13T22:58:26.601Z,99603.00
2023-04-13T23:00:53.543Z,99608.00
2023-04-13T23:03:21.336Z,99606.00
2023-04-13T23:05:48.539Z,99607.00
2023-04-13T23:08:15.413Z,99595.00
2023-04-13T23:10:42.302Z,99610.00
2023-04-13T23:13:09.239Z,99602.00
2023-04-13T23:15:36.220Z,99597.00
2023-04-13T23:18:03.267Z,99601.00
2023-04-13T23:20:30.569Z,99601.00
2023-04-13T23:22:57.479Z,99598.00
2023-04-13T23:25:24.597Z,99608.00
2023-04-13T23:27:51.479Z,99606.00
2023-04-13T23:30:18.588Z,99606.00
2023-04-13T23:32:45.497Z,99604.00
2023-04-13T23:35:12.510Z,99606.00
2023-04-13T23:37:40.679Z,99610.00
2023-04-13T23:40:09.908Z,99599.00
2023-04-13T23:42:36.825Z,99604.00
2023-04-13T23:45:04.253Z,99601.00
2023-04-13T23:47:31.434Z,99599.00
2023-04-13T23:49:58.396Z,99601.00
2023-04-13T23:52:25.293Z,99597.00
2023-04-13T23:54:52.140Z,99605.00
2023-04-13T23:57:19.025Z,99593.00
2023-04-13T23:59:45.980Z,99605.00
